(°C)
(°C)
O
O
WNW
WNW
NW
NW
NW
(km/h)
7-15
6-14
5-13
4-11
4-9
4-8
5-8
(mm)
0
0
0
0
0
0
0
(%)
24
58
47
35
47
47
26

Elevazione del sole

/ -16.5°
sun-icon
UV 1
07:09
19:00
Ultimo quarto (274°)
23:12
15:54

METAR per 51.02°N 71.47°E (UACC)

Ora Condizioni Temperatura/
Punto di rugiada
Vento Visibilità Tempo Nuvole Pressione Cambiamento Grezzo
LIFR 7°C / 6°C 250º 8kt >10km - Overcast 400ft 1007 No Significant change. Runway 22: Wet or puddles, 51-100% contamination with 3mm, friction coefficient 0.50. UACC 282300Z 25004MPS 9999 OVC004 07/06 Q1007 R22/290350 NOSIG RMK QBB140 QFE724/0965
IFR 6°C / 6°C 250º 8kt >10km - Broken Clouds 500ft 1006 No Significant change. Runway 22: Wet or puddles, 51-100% contamination with 3mm, friction coefficient 0.50. UACC 282230Z 25004MPS 9999 BKN005 06/06 Q1006 R22/290350 NOSIG RMK QBB150 QFE724/0965
VFR 7°C / 6°C 250º 8kt >10km - Scattered Clouds 700ft 1006 No Significant change. Runway 22: Wet or puddles, 51-100% contamination with 3mm, friction coefficient 0.50. UACC 282200Z 25004MPS 9999 SCT007 OVC043CB 07/06 Q1006 R22/290350 NOSIG RMK QFE724/0965
IFR 7°C / 6°C 250º 10kt >10km - Broken Clouds 800ft 1006 No Significant change. Runway 22: Wet or puddles, 51-100% contamination with 3mm, friction coefficient 0.50. UACC 282130Z 25005MPS 9999 BKN008 OVC036CB 07/06 Q1006 R22/290350 NOSIG RMK QFE724/0965
IFR 7°C / 6°C 240º 12kt >10km - Broken Clouds 800ft 1006 No Significant change. Runway 22: Wet or puddles, 51-100% contamination with 3mm, friction coefficient 0.50. UACC 282100Z 24006MPS 9999 BKN008 OVC036CB 07/06 Q1006 R22/290350 NOSIG RMK QFE723/0965
VFR 7°C / 7°C 220º 8kt >10km - Scattered Clouds 800ft 1006 No Significant change. Runway 22: Wet or puddles, 51-100% contamination with 3mm, friction coefficient 0.50. UACC 282030Z 22004MPS 9999 SCT008 OVC036CB 07/07 Q1006 R22/290350 NOSIG RMK QFE723/0965
MVFR 7°C / 6°C 220º 4kt 7000m Light Showers Rain 3.00mm precipitation Vertical Visibility of 0ft. 1006 No Significant change. Runway 22: Wet or puddles, 51-100% contamination with 3mm, friction coefficient 0.50. UACC 282000Z 22002MPS 7000 -SHRA SCT013 OVC036CB 07/06 Q1006 R22/290350 NOSIG RMK QFE723/0964
VFR 7°C / 6°C 210º 6kt >10km - Scattered Clouds 1400ft 1006 No Significant change. Runway 22: Wet or puddles, 51-100% contamination with 3mm, friction coefficient 0.50. UACC 281930Z 21003MPS 9999 SCT014 BKN036CB 07/06 Q1006 R22/290350 NOSIG RMK QFE723/0964
VFR 6°C / 5°C 180º 4kt >10km - Few Clouds 2300ft 1005 No Significant change. Runway 22: Wet or puddles, 51-100% contamination with 3mm, friction coefficient 0.50. UACC 281900Z 18002MPS 9999 FEW023CB 06/05 Q1005 R22/290350 NOSIG RMK QFE723/0964
VFR 6°C / 5°C variable 2kt >10km - Few Clouds 3000ft 1005 No Significant change. Runway 22: Wet or puddles, 51-100% contamination with 3mm, friction coefficient 0.50. UACC 281830Z VRB01MPS 9999 FEW030CB 06/05 Q1005 R22/290350 NOSIG RMK QFE723/0964
VFR 7°C / 5°C 350º 6kt >10km - Few Clouds 1200ft 1005 No Significant change. Runway 22: Wet or puddles, 51-100% contamination with 3mm, friction coefficient 0.50. UACC 281800Z 35003MPS 9999 FEW012 BKN036CB 07/05 Q1005 R22/290350 NOSIG RMK QFE723/0964
MVFR 8°C / 6°C 310º 8kt 5000m Light Showers Rain 3.00mm precipitation Vertical Visibility of 0ft. 1006 No Significant change. Runway 22: Wet or puddles, 51-100% contamination with 3mm, friction coefficient 0.50. UACC 281730Z 31004MPS 5000 -SHRA SCT008 BKN026CB 08/06 Q1006 RESHRA R22/290350 NOSIG RMK QFE723/0965
IFR 8°C / 7°C 240º 4kt 2000m. Runway 22: Visual range is 2000m and decreasing. Showers Rain 3.00mm precipitation Vertical Visibility of 0ft. 1006 No Significant change. Runway 22: Wet or puddles, 51-100% contamination, friction coefficient 0.60. UACC 281707Z 24002MPS 2000 R22/P2000D SHRA SCT020CB OVC036 08/07 Q1006 R22/29//60 NOSIG RMK QFE724/0965
MVFR 8°C / 7°C 50º variable 020º to 080º 4kt >10km Light Drizzle 0.20mm precipitation Vertical Visibility of 0ft. 1006 No Significant change. Runway 22: Wet or puddles, 51-100% contamination, friction coefficient 0.60. UACC 281630Z 05002MPS 020V080 9999 -DZ OVC017 08/07 Q1006 R22/29//60 NOSIG RMK QFE723/0965
MVFR 8°C / 7°C 20º variable 350º to 060º 4kt 7000m Light Drizzle 0.20mm precipitation Vertical Visibility of 0ft. 1006 No Significant change. Runway 22: Wet or puddles, 51-100% contamination, friction coefficient 0.60. UACC 281600Z 02002MPS 350V060 7000 -DZ OVC014 08/07 Q1006 R22/29//60 NOSIG RMK QFE723/0965
VFR 8°C / 7°C 330º variable 290º to 360º 8kt >10km - Scattered Clouds 700ft 1006 No Significant change. Runway 22: Wet or puddles, 51-100% contamination, friction coefficient 0.60. UACC 281530Z 33004MPS 290V360 9999 SCT007 BKN063CB 08/07 Q1006 R22/29//60 NOSIG RMK QFE724/0965
VFR 7°C / 7°C 140º 6kt >10km - Scattered Clouds 3600ft 1006 No Significant change. Runway 22: Wet or puddles, 51-100% contamination, friction coefficient 0.60. UACC 281500Z 14003MPS 9999 SCT036CB 07/07 Q1006 R22/29//60 NOSIG RMK QFE724/0965
VFR 6°C / 5°C 140º 6kt >10km - Few Clouds 3000ft 1006 No Significant change. Runway 22: Wet or puddles, 51-100% contamination, friction coefficient 0.60. UACC 281430Z 14003MPS 9999 FEW030 06/05 Q1006 R22/29//60 NOSIG RMK QFE724/0965
VFR 7°C / 6°C variable 2kt >10km - Scattered Clouds 3000ft 1006 No Significant change. Runway 22: Wet or puddles, 51-100% contamination, friction coefficient 0.60. UACC 281400Z VRB01MPS 9999 SCT030 07/06 Q1006 R22/29//60 NOSIG RMK QFE724/0965
VFR 8°C / 7°C 180º 6kt >10km - Scattered Clouds 2300ft 1006 No Significant change. Runway 22: Wet or puddles, 51-100% contamination, friction coefficient 0.60. UACC 281330Z 18003MPS 9999 SCT023 08/07 Q1006 R22/29//60 NOSIG RMK QFE724/0965
MVFR 9°C / 7°C 180º 8kt >10km - Broken Clouds 1600ft 1007 No Significant change. Runway 22: Wet or puddles, , friction coefficient 0.55. UACC 281300Z 18004MPS 9999 BKN016 09/07 Q1007 R22/2///55 NOSIG RMK QFE724/0965
MVFR 10°C / 8°C 190º 10kt >10km - Scattered Clouds 1400ft 1007 No Significant change. Runway 22: Wet or puddles, , friction coefficient 0.55. UACC 281230Z 19005MPS 9999 SCT014 BKN023 10/08 Q1007 R22/2///55 NOSIG RMK QFE724/0966
VFR 10°C / 8°C 180º 10kt >10km - Few Clouds 1000ft 1007 No Significant change. Runway 22: Wet or puddles, , friction coefficient 0.55. UACC 281200Z 18005MPS 9999 FEW010 SCT036 10/08 Q1007 R22/2///55 NOSIG RMK QFE724/0966
VFR 11°C / 9°C 170º 10kt >10km - Few Clouds 1300ft 1007 No Significant change. Runway 22: Wet or puddles, , friction coefficient 0.55. UACC 281130Z 17005MPS 9999 FEW013 BKN036CB 11/09 Q1007 R22/2///55 NOSIG RMK QFE724/0966

LIFR

7°C / 6°C

[Più]
Vento 250º 8kt
Visibilità >10km
Tempo -
Nuvole Overcast 400ft
Pressione 1007
Cambiamento No Significant change. Runway 22: Wet or puddles, 51-100% contamination with 3mm, friction coefficient 0.50.
Grezzo UACC 282300Z 25004MPS 9999 OVC004 07/06 Q1007 R22/290350 NOSIG RMK QBB140 QFE724/0965

IFR

6°C / 6°C

[Più]
Vento 250º 8kt
Visibilità >10km
Tempo -
Nuvole Broken Clouds 500ft
Pressione 1006
Cambiamento No Significant change. Runway 22: Wet or puddles, 51-100% contamination with 3mm, friction coefficient 0.50.
Grezzo UACC 282230Z 25004MPS 9999 BKN005 06/06 Q1006 R22/290350 NOSIG RMK QBB150 QFE724/0965

VFR

7°C / 6°C

[Più]
Vento 250º 8kt
Visibilità >10km
Tempo -
Nuvole Scattered Clouds 700ft
Pressione 1006
Cambiamento No Significant change. Runway 22: Wet or puddles, 51-100% contamination with 3mm, friction coefficient 0.50.
Grezzo UACC 282200Z 25004MPS 9999 SCT007 OVC043CB 07/06 Q1006 R22/290350 NOSIG RMK QFE724/0965

IFR

7°C / 6°C

[Più]
Vento 250º 10kt
Visibilità >10km
Tempo -
Nuvole Broken Clouds 800ft
Pressione 1006
Cambiamento No Significant change. Runway 22: Wet or puddles, 51-100% contamination with 3mm, friction coefficient 0.50.
Grezzo UACC 282130Z 25005MPS 9999 BKN008 OVC036CB 07/06 Q1006 R22/290350 NOSIG RMK QFE724/0965

IFR

7°C / 6°C

[Più]
Vento 240º 12kt
Visibilità >10km
Tempo -
Nuvole Broken Clouds 800ft
Pressione 1006
Cambiamento No Significant change. Runway 22: Wet or puddles, 51-100% contamination with 3mm, friction coefficient 0.50.
Grezzo UACC 282100Z 24006MPS 9999 BKN008 OVC036CB 07/06 Q1006 R22/290350 NOSIG RMK QFE723/0965

VFR

7°C / 7°C

[Più]
Vento 220º 8kt
Visibilità >10km
Tempo -
Nuvole Scattered Clouds 800ft
Pressione 1006
Cambiamento No Significant change. Runway 22: Wet or puddles, 51-100% contamination with 3mm, friction coefficient 0.50.
Grezzo UACC 282030Z 22004MPS 9999 SCT008 OVC036CB 07/07 Q1006 R22/290350 NOSIG RMK QFE723/0965

MVFR

7°C / 6°C

[Più]
Vento 220º 4kt
Visibilità 7000m
Tempo Light Showers Rain 3.00mm precipitation
Nuvole Vertical Visibility of 0ft.
Pressione 1006
Cambiamento No Significant change. Runway 22: Wet or puddles, 51-100% contamination with 3mm, friction coefficient 0.50.
Grezzo UACC 282000Z 22002MPS 7000 -SHRA SCT013 OVC036CB 07/06 Q1006 R22/290350 NOSIG RMK QFE723/0964

VFR

7°C / 6°C

[Più]
Vento 210º 6kt
Visibilità >10km
Tempo -
Nuvole Scattered Clouds 1400ft
Pressione 1006
Cambiamento No Significant change. Runway 22: Wet or puddles, 51-100% contamination with 3mm, friction coefficient 0.50.
Grezzo UACC 281930Z 21003MPS 9999 SCT014 BKN036CB 07/06 Q1006 R22/290350 NOSIG RMK QFE723/0964

VFR

6°C / 5°C

[Più]
Vento 180º 4kt
Visibilità >10km
Tempo -
Nuvole Few Clouds 2300ft
Pressione 1005
Cambiamento No Significant change. Runway 22: Wet or puddles, 51-100% contamination with 3mm, friction coefficient 0.50.
Grezzo UACC 281900Z 18002MPS 9999 FEW023CB 06/05 Q1005 R22/290350 NOSIG RMK QFE723/0964

VFR

6°C / 5°C

[Più]
Vento variable 2kt
Visibilità >10km
Tempo -
Nuvole Few Clouds 3000ft
Pressione 1005
Cambiamento No Significant change. Runway 22: Wet or puddles, 51-100% contamination with 3mm, friction coefficient 0.50.
Grezzo UACC 281830Z VRB01MPS 9999 FEW030CB 06/05 Q1005 R22/290350 NOSIG RMK QFE723/0964

VFR

7°C / 5°C

[Più]
Vento 350º 6kt
Visibilità >10km
Tempo -
Nuvole Few Clouds 1200ft
Pressione 1005
Cambiamento No Significant change. Runway 22: Wet or puddles, 51-100% contamination with 3mm, friction coefficient 0.50.
Grezzo UACC 281800Z 35003MPS 9999 FEW012 BKN036CB 07/05 Q1005 R22/290350 NOSIG RMK QFE723/0964

MVFR

8°C / 6°C

[Più]
Vento 310º 8kt
Visibilità 5000m
Tempo Light Showers Rain 3.00mm precipitation
Nuvole Vertical Visibility of 0ft.
Pressione 1006
Cambiamento No Significant change. Runway 22: Wet or puddles, 51-100% contamination with 3mm, friction coefficient 0.50.
Grezzo UACC 281730Z 31004MPS 5000 -SHRA SCT008 BKN026CB 08/06 Q1006 RESHRA R22/290350 NOSIG RMK QFE723/0965

IFR

8°C / 7°C

[Più]
Vento 240º 4kt
Visibilità 2000m. Runway 22: Visual range is 2000m and decreasing.
Tempo Showers Rain 3.00mm precipitation
Nuvole Vertical Visibility of 0ft.
Pressione 1006
Cambiamento No Significant change. Runway 22: Wet or puddles, 51-100% contamination, friction coefficient 0.60.
Grezzo UACC 281707Z 24002MPS 2000 R22/P2000D SHRA SCT020CB OVC036 08/07 Q1006 R22/29//60 NOSIG RMK QFE724/0965

MVFR

8°C / 7°C

[Più]
Vento 50º variable 020º to 080º 4kt
Visibilità >10km
Tempo Light Drizzle 0.20mm precipitation
Nuvole Vertical Visibility of 0ft.
Pressione 1006
Cambiamento No Significant change. Runway 22: Wet or puddles, 51-100% contamination, friction coefficient 0.60.
Grezzo UACC 281630Z 05002MPS 020V080 9999 -DZ OVC017 08/07 Q1006 R22/29//60 NOSIG RMK QFE723/0965

MVFR

8°C / 7°C

[Più]
Vento 20º variable 350º to 060º 4kt
Visibilità 7000m
Tempo Light Drizzle 0.20mm precipitation
Nuvole Vertical Visibility of 0ft.
Pressione 1006
Cambiamento No Significant change. Runway 22: Wet or puddles, 51-100% contamination, friction coefficient 0.60.
Grezzo UACC 281600Z 02002MPS 350V060 7000 -DZ OVC014 08/07 Q1006 R22/29//60 NOSIG RMK QFE723/0965

VFR

8°C / 7°C

[Più]
Vento 330º variable 290º to 360º 8kt
Visibilità >10km
Tempo -
Nuvole Scattered Clouds 700ft
Pressione 1006
Cambiamento No Significant change. Runway 22: Wet or puddles, 51-100% contamination, friction coefficient 0.60.
Grezzo UACC 281530Z 33004MPS 290V360 9999 SCT007 BKN063CB 08/07 Q1006 R22/29//60 NOSIG RMK QFE724/0965

VFR

7°C / 7°C

[Più]
Vento 140º 6kt
Visibilità >10km
Tempo -
Nuvole Scattered Clouds 3600ft
Pressione 1006
Cambiamento No Significant change. Runway 22: Wet or puddles, 51-100% contamination, friction coefficient 0.60.
Grezzo UACC 281500Z 14003MPS 9999 SCT036CB 07/07 Q1006 R22/29//60 NOSIG RMK QFE724/0965

VFR

6°C / 5°C

[Più]
Vento 140º 6kt
Visibilità >10km
Tempo -
Nuvole Few Clouds 3000ft
Pressione 1006
Cambiamento No Significant change. Runway 22: Wet or puddles, 51-100% contamination, friction coefficient 0.60.
Grezzo UACC 281430Z 14003MPS 9999 FEW030 06/05 Q1006 R22/29//60 NOSIG RMK QFE724/0965

VFR

7°C / 6°C

[Più]
Vento variable 2kt
Visibilità >10km
Tempo -
Nuvole Scattered Clouds 3000ft
Pressione 1006
Cambiamento No Significant change. Runway 22: Wet or puddles, 51-100% contamination, friction coefficient 0.60.
Grezzo UACC 281400Z VRB01MPS 9999 SCT030 07/06 Q1006 R22/29//60 NOSIG RMK QFE724/0965

VFR

8°C / 7°C

[Più]
Vento 180º 6kt
Visibilità >10km
Tempo -
Nuvole Scattered Clouds 2300ft
Pressione 1006
Cambiamento No Significant change. Runway 22: Wet or puddles, 51-100% contamination, friction coefficient 0.60.
Grezzo UACC 281330Z 18003MPS 9999 SCT023 08/07 Q1006 R22/29//60 NOSIG RMK QFE724/0965

MVFR

9°C / 7°C

[Più]
Vento 180º 8kt
Visibilità >10km
Tempo -
Nuvole Broken Clouds 1600ft
Pressione 1007
Cambiamento No Significant change. Runway 22: Wet or puddles, , friction coefficient 0.55.
Grezzo UACC 281300Z 18004MPS 9999 BKN016 09/07 Q1007 R22/2///55 NOSIG RMK QFE724/0965

MVFR

10°C / 8°C

[Più]
Vento 190º 10kt
Visibilità >10km
Tempo -
Nuvole Scattered Clouds 1400ft
Pressione 1007
Cambiamento No Significant change. Runway 22: Wet or puddles, , friction coefficient 0.55.
Grezzo UACC 281230Z 19005MPS 9999 SCT014 BKN023 10/08 Q1007 R22/2///55 NOSIG RMK QFE724/0966

VFR

10°C / 8°C

[Più]
Vento 180º 10kt
Visibilità >10km
Tempo -
Nuvole Few Clouds 1000ft
Pressione 1007
Cambiamento No Significant change. Runway 22: Wet or puddles, , friction coefficient 0.55.
Grezzo UACC 281200Z 18005MPS 9999 FEW010 SCT036 10/08 Q1007 R22/2///55 NOSIG RMK QFE724/0966

VFR

11°C / 9°C

[Più]
Vento 170º 10kt
Visibilità >10km
Tempo -
Nuvole Few Clouds 1300ft
Pressione 1007
Cambiamento No Significant change. Runway 22: Wet or puddles, , friction coefficient 0.55.
Grezzo UACC 281130Z 17005MPS 9999 FEW013 BKN036CB 11/09 Q1007 R22/2///55 NOSIG RMK QFE724/0966

TAF per 51.02°N 71.47°E (UACC)

From till


Maximum Temperature 7ºC on . Minimum Temperature 3ºC on .
From till Wind 250º 8kt. Visibility 10km or more. Broken Clouds 700ft. Broken Clouds 2000ft.
Temporarly from till Wind 20º 8kt. Visibility 5000m. Light Showers Rain . Broken Clouds 300ft. Broken Clouds 1500ft.
Temporarly from till Visibility 5000m. Light Showers Rain . Broken Clouds 500ft. Broken Clouds 2000ft.
Becoming from till Wind 50º 12kt. Visibility 10km or more. Broken Clouds 700ft. Broken Clouds 2000ft.

Grezzo: TAF UACC 282309Z 2900/2924 25004MPS 9999 BKN007 BKN020 TX07/2909Z TN03/2923Z TEMPO 2900/2905 02004MPS 5000 -SHRA BKN003 BKN015CB BECMG 2905/2907 05006MPS TEMPO 2905/2916 5000 -SHRA BKN005 BKN020CB

Tempo in atto per 51.02°N 71.47°E: immagine satellitare e pioggia

Il segnaposto è situato a 51.02°N 71.47°E. [Più]

L'immagine satellitare in tempo reale combina la luce visibile durante il giorno con la radiazione infrarossa durante la notte. Di notte l'immagine non è scura poiché i raggi infrarossi possono rilevare differenze di temperatura. Purtroppo, le nuvole basse e la nebbia sono difficili da distinguere dalla temperatura del suolo e possono pertanto essere quasi invisibili durante la notte. Le immagini satellitari Meteosat per l'Europa vengono aggiornate in tempo reale ogni 5 minuti. Le immagini GOES-16 / GOES-17 (Nord e Sud America) e Himawari (Asia) vengono aggiornate ogni 10 minuti.

Copyright 2021 EUMETSAT / meteoblue. / Copyright 2021 meteoblue

Radar e nowcasting per 51.02°N 71.47°E

Pioggerella
Lieve
Moderato
Forte
Molto forte
Grandine

Il segnaposto è situato a 51.02°N 71.47°E. Questa animazione mostra il radar delle precipitazioni per l'ultima ora, nonché una previsione 1h. Una pioggerella o una leggera caduta di neve potrebbero essere invisibili per il radar. L'intensità delle precipitazioni è codificata a colori, dal blu chiaro all'arancione.